Time;durP1;ratioP1;P1;durP2;ratioP2;P2;SDS_P1;SDS_P2;PMS_P1;PMS_P2;Temp;Humidity;BMP_temperature;BMP_pressure;BME280_temperature;BME280_humidity;BME280_pressure;Samples;Min_cycle;Max_cycle;Signal;HPM_P1;HPM_P2
2021/07/28 00:00:43;;;;;;;13.15;8.15;;;;;;;;;;5016262;28;20427;-71
2021/07/28 00:03:09;;;;;;;12.93;8.25;;;;;;;;;;5005369;28;20039;-71
2021/07/28 00:05:35;;;;;;;11.20;7.75;;;;;;;;;;5014022;28;20340;-71
2021/07/28 00:08:01;;;;;;;11.70;7.50;;;;;;;;;;5019132;28;20021;-74
2021/07/28 00:10:26;;;;;;;12.23;8.05;;;;;;;;;;5018074;28;20263;-73
2021/07/28 00:12:51;;;;;;;14.73;9.07;;;;;;;;;;5016655;28;20042;-72
2021/07/28 00:15:19;;;;;;;13.43;8.60;;;;;;;;;;5010389;28;20034;-72
2021/07/28 00:17:48;;;;;;;12.93;8.45;;;;;;;;;;5017993;28;20080;-71
2021/07/28 00:25:35;;;;;;;12.00;7.70;;;;;;;;;;5007946;28;20026;-71
2021/07/28 00:28:01;;;;;;;11.43;7.90;;;;;;;;;;5016844;28;20065;-71
2021/07/28 00:30:27;;;;;;;10.95;7.45;;;;;;;;;;5010939;28;20038;-71
2021/07/28 00:32:52;;;;;;;13.25;7.72;;;;;;;;;;5017528;28;20065;-72
2021/07/28 00:35:17;;;;;;;14.18;7.97;;;;;;;;;;5008900;28;20045;-71
2021/07/28 00:37:45;;;;;;;11.20;7.25;;;;;;;;;;5017599;28;20025;-71
2021/07/28 00:40:11;;;;;;;10.82;7.13;;;;;;;;;;5011884;28;20072;-72
2021/07/28 00:42:36;;;;;;;13.77;7.35;;;;;;;;;;5018204;28;20479;-71
2021/07/28 00:45:02;;;;;;;12.27;7.03;;;;;;;;;;5015354;28;20140;-71
2021/07/28 00:47:27;;;;;;;13.25;8.77;;;;;;;;;;5017147;28;20044;-71
2021/07/28 00:49:55;;;;;;;10.27;7.25;;;;;;;;;;5023323;28;20079;-71
2021/07/28 00:52:21;;;;;;;10.18;6.78;;;;;;;;;;5029064;28;20132;-71
2021/07/28 00:54:46;;;;;;;13.07;8.32;;;;;;;;;;5028795;28;20064;-72
2021/07/28 00:57:11;;;;;;;10.68;7.50;;;;;;;;;;5028377;28;20394;-71
2021/07/28 00:59:37;;;;;;;10.65;7.45;;;;;;;;;;5010187;28;20325;-71
2021/07/28 01:02:02;;;;;;;11.88;7.68;;;;;;;;;;5027267;28;20359;-71
2021/07/28 01:04:28;;;;;;;11.13;7.25;;;;;;;;;;5028436;28;20052;-71
2021/07/28 01:06:53;;;;;;;10.18;6.43;;;;;;;;;;5024968;28;20052;-71
2021/07/28 01:09:19;;;;;;;15.57;8.50;;;;;;;;;;5012084;28;20033;-72
2021/07/28 01:11:44;;;;;;;12.85;8.52;;;;;;;;;;5011124;28;20032;-72
2021/07/28 01:14:10;;;;;;;13.52;8.82;;;;;;;;;;5019111;28;20041;-71
2021/07/28 01:16:39;;;;;;;14.20;9.20;;;;;;;;;;5009456;28;20069;-72
2021/07/28 01:19:05;;;;;;;15.85;9.82;;;;;;;;;;5009070;28;20024;-73
2021/07/28 01:21:31;;;;;;;13.35;9.43;;;;;;;;;;5022843;28;20128;-71
2021/07/28 01:23:59;;;;;;;13.10;9.00;;;;;;;;;;5013582;28;20096;-71
2021/07/28 01:26:25;;;;;;;14.05;9.57;;;;;;;;;;5010629;28;20076;-71
2021/07/28 01:28:51;;;;;;;12.07;8.30;;;;;;;;;;5015132;28;20103;-73
2021/07/28 01:31:17;;;;;;;12.45;7.93;;;;;;;;;;5017671;28;20034;-71
2021/07/28 01:33:44;;;;;;;14.43;9.30;;;;;;;;;;5008140;28;20494;-71
2021/07/28 01:36:14;;;;;;;12.73;8.77;;;;;;;;;;5026387;28;20029;-71
2021/07/28 01:38:40;;;;;;;14.43;9.90;;;;;;;;;;5001559;28;20601;-71
2021/07/28 01:41:06;;;;;;;13.65;9.30;;;;;;;;;;5020471;28;20033;-73
2021/07/28 01:43:31;;;;;;;11.35;8.15;;;;;;;;;;5017984;28;20438;-71
2021/07/28 01:45:58;;;;;;;13.13;9.35;;;;;;;;;;5019228;28;20025;-71
2021/07/28 01:48:24;;;;;;;11.13;8.00;;;;;;;;;;5020697;28;20049;-72
2021/07/28 01:50:49;;;;;;;15.48;8.48;;;;;;;;;;5015313;28;20037;-73
2021/07/28 01:53:15;;;;;;;12.82;8.75;;;;;;;;;;5020585;28;20037;-72
2021/07/28 01:55:41;;;;;;;11.32;8.18;;;;;;;;;;4997823;28;20528;-71
2021/07/28 01:58:06;;;;;;;14.60;9.75;;;;;;;;;;5019894;28;20044;-71
2021/07/28 02:00:34;;;;;;;13.88;9.90;;;;;;;;;;5012874;28;20030;-71
2021/07/28 02:03:03;;;;;;;15.20;10.38;;;;;;;;;;5024015;28;20033;-72
2021/07/28 02:05:31;;;;;;;14.20;9.60;;;;;;;;;;5030255;28;20065;-71
2021/07/28 02:08:01;;;;;;;16.30;10.65;;;;;;;;;;5020794;28;20111;-71
2021/07/28 02:10:33;;;;;;;15.68;10.55;;;;;;;;;;5024178;28;20469;-71
2021/07/28 02:12:58;;;;;;;14.23;9.85;;;;;;;;;;5030921;28;20038;-71
2021/07/28 02:15:27;;;;;;;14.93;10.00;;;;;;;;;;5029884;28;20035;-71
2021/07/28 02:17:53;;;;;;;15.50;11.27;;;;;;;;;;5031773;28;20417;-72
2021/07/28 02:20:18;;;;;;;13.80;9.87;;;;;;;;;;5030265;28;20040;-72
2021/07/28 02:22:44;;;;;;;15.98;11.18;;;;;;;;;;5030237;28;20025;-71
2021/07/28 02:25:10;;;;;;;16.35;10.95;;;;;;;;;;5031141;28;20029;-71
2021/07/28 02:27:35;;;;;;;15.98;10.95;;;;;;;;;;5029588;28;20112;-71
2021/07/28 02:30:00;;;;;;;15.68;10.57;;;;;;;;;;5031049;28;20056;-71
2021/07/28 02:32:28;;;;;;;15.93;10.27;;;;;;;;;;5013280;28;20087;-71
2021/07/28 02:34:54;;;;;;;14.77;10.75;;;;;;;;;;5029947;28;20112;-71
2021/07/28 02:37:19;;;;;;;15.05;10.23;;;;;;;;;;5030635;28;20116;-71
2021/07/28 02:39:44;;;;;;;13.60;9.25;;;;;;;;;;5028322;28;20194;-72
2021/07/28 02:42:09;;;;;;;18.33;11.30;;;;;;;;;;5024751;28;20116;-71
2021/07/28 02:44:35;;;;;;;14.80;10.00;;;;;;;;;;5020355;28;20143;-71
2021/07/28 02:47:02;;;;;;;13.88;8.65;;;;;;;;;;5021694;28;20034;-72
2021/07/28 02:49:28;;;;;;;16.13;10.38;;;;;;;;;;5019529;28;20072;-72
2021/07/28 02:51:53;;;;;;;15.15;9.82;;;;;;;;;;5019843;28;20056;-72
2021/07/28 02:54:21;;;;;;;12.90;8.68;;;;;;;;;;5016221;28;20034;-73
2021/07/28 02:56:47;;;;;;;12.98;9.13;;;;;;;;;;5016566;28;20524;-72
2021/07/28 02:59:14;;;;;;;14.02;8.68;;;;;;;;;;5013736;28;20033;-71
2021/07/28 03:01:40;;;;;;;14.65;9.55;;;;;;;;;;5019549;28;20025;-71
2021/07/28 03:04:05;;;;;;;15.23;9.20;;;;;;;;;;5020753;28;20126;-71
2021/07/28 03:06:31;;;;;;;11.70;8.50;;;;;;;;;;5019095;28;20053;-72
2021/07/28 03:08:58;;;;;;;15.82;10.52;;;;;;;;;;5016433;28;20116;-71
2021/07/28 03:11:24;;;;;;;14.18;9.63;;;;;;;;;;5016187;28;20053;-72
2021/07/28 03:13:52;;;;;;;18.00;10.63;;;;;;;;;;5019790;28;20397;-72
2021/07/28 03:16:20;;;;;;;17.08;10.85;;;;;;;;;;5008533;28;20088;-71
2021/07/28 03:18:45;;;;;;;17.77;11.43;;;;;;;;;;5018453;28;20034;-72
2021/07/28 03:21:11;;;;;;;13.27;9.18;;;;;;;;;;5018682;28;20025;-70
2021/07/28 03:23:36;;;;;;;13.77;8.55;;;;;;;;;;5020862;28;20045;-72
2021/07/28 03:26:02;;;;;;;14.95;9.55;;;;;;;;;;5015659;28;20062;-70
2021/07/28 03:28:27;;;;;;;12.82;9.25;;;;;;;;;;5016723;28;20030;-73
2021/07/28 03:30:53;;;;;;;12.95;8.25;;;;;;;;;;4995755;28;20037;-71
2021/07/28 03:33:18;;;;;;;14.77;8.40;;;;;;;;;;5007900;28;20516;-71
2021/07/28 03:35:44;;;;;;;13.70;8.95;;;;;;;;;;5019182;28;20030;-73
2021/07/28 03:38:10;;;;;;;11.73;8.27;;;;;;;;;;5019832;28;20037;-71
2021/07/28 03:40:35;;;;;;;10.45;6.93;;;;;;;;;;5020821;28;20038;-71
2021/07/28 03:43:00;;;;;;;11.55;7.78;;;;;;;;;;5016006;28;20029;-71
2021/07/28 03:45:26;;;;;;;11.68;7.20;;;;;;;;;;5016741;28;20034;-71
2021/07/28 03:47:51;;;;;;;8.80;6.50;;;;;;;;;;5016287;28;20029;-71
2021/07/28 03:50:17;;;;;;;9.88;6.20;;;;;;;;;;5024557;28;20033;-74
2021/07/28 03:52:42;;;;;;;9.27;6.10;;;;;;;;;;5001973;28;20109;-71
2021/07/28 03:55:10;;;;;;;9.13;6.10;;;;;;;;;;5020512;28;20109;-72
2021/07/28 03:57:36;;;;;;;7.18;5.55;;;;;;;;;;5012793;28;20045;-72
2021/07/28 04:00:01;;;;;;;7.75;5.20;;;;;;;;;;5014504;28;20107;-72
2021/07/28 04:02:29;;;;;;;8.05;4.93;;;;;;;;;;5020766;28;20045;-71
2021/07/28 04:04:55;;;;;;;8.60;5.50;;;;;;;;;;5016225;28;20084;-72
2021/07/28 04:07:20;;;;;;;7.80;5.40;;;;;;;;;;5015623;28;20100;-72
2021/07/28 04:09:45;;;;;;;7.18;4.97;;;;;;;;;;5016944;28;20061;-71
2021/07/28 04:12:11;;;;;;;7.65;4.90;;;;;;;;;;5020617;28;20025;-72
2021/07/28 04:14:36;;;;;;;6.78;4.60;;;;;;;;;;5019428;28;20036;-73
2021/07/28 04:17:01;;;;;;;7.13;4.60;;;;;;;;;;5013197;28;20481;-71
2021/07/28 04:19:27;;;;;;;6.80;4.70;;;;;;;;;;5016403;28;20080;-71
2021/07/28 04:21:52;;;;;;;7.90;4.65;;;;;;;;;;5018922;28;20117;-71
2021/07/28 04:24:17;;;;;;;7.85;4.55;;;;;;;;;;5013386;28;20073;-71
2021/07/28 04:26:43;;;;;;;7.75;5.18;;;;;;;;;;5011745;28;20083;-72
2021/07/28 04:29:08;;;;;;;6.03;4.10;;;;;;;;;;5015174;28;20041;-72
2021/07/28 04:31:33;;;;;;;7.30;4.78;;;;;;;;;;5020355;28;20439;-71
2021/07/28 04:33:59;;;;;;;7.25;5.18;;;;;;;;;;5016266;28;20045;-73
2021/07/28 04:36:24;;;;;;;6.85;4.97;;;;;;;;;;5015724;28;20120;-72
2021/07/28 04:38:50;;;;;;;7.13;4.47;;;;;;;;;;5018624;28;20116;-73
2021/07/28 04:41:15;;;;;;;6.97;4.55;;;;;;;;;;5011934;28;20432;-73
2021/07/28 04:43:41;;;;;;;8.25;5.43;;;;;;;;;;5013353;28;20041;-72
2021/07/28 04:46:08;;;;;;;6.38;4.68;;;;;;;;;;5014355;28;20034;-71
2021/07/28 04:48:34;;;;;;;6.20;4.40;;;;;;;;;;5015025;28;20029;-72
2021/07/28 04:51:02;;;;;;;7.93;4.93;;;;;;;;;;5015697;28;20413;-72
2021/07/28 04:53:28;;;;;;;7.13;4.50;;;;;;;;;;5019405;28;20045;-73
2021/07/28 04:55:54;;;;;;;5.30;4.10;;;;;;;;;;5018422;28;20049;-72
2021/07/28 04:58:20;;;;;;;7.50;4.50;;;;;;;;;;5012505;28;20065;-71
2021/07/28 05:00:46;;;;;;;6.00;4.25;;;;;;;;;;4990820;28;20055;-72
2021/07/28 05:03:11;;;;;;;7.07;4.50;;;;;;;;;;5009257;28;20083;-73
2021/07/28 05:05:37;;;;;;;6.60;4.38;;;;;;;;;;5009925;28;20959;-71
2021/07/28 05:08:02;;;;;;;7.53;5.00;;;;;;;;;;5031156;28;20029;-73
2021/07/28 05:10:27;;;;;;;6.32;4.28;;;;;;;;;;5015843;28;20080;-74
2021/07/28 05:12:53;;;;;;;7.72;4.90;;;;;;;;;;5003813;28;20046;-73
2021/07/28 05:15:18;;;;;;;9.18;5.00;;;;;;;;;;5017864;28;20465;-73
2021/07/28 05:17:43;;;;;;;7.68;5.10;;;;;;;;;;5015438;28;20552;-73
2021/07/28 05:20:09;;;;;;;7.07;4.88;;;;;;;;;;5014871;28;20034;-71
2021/07/28 05:22:35;;;;;;;7.30;4.70;;;;;;;;;;5018165;28;20577;-71
2021/07/28 05:25:02;;;;;;;8.20;5.43;;;;;;;;;;5012723;28;20147;-71
2021/07/28 05:27:28;;;;;;;6.65;4.80;;;;;;;;;;5011887;28;20153;-71
2021/07/28 05:29:53;;;;;;;8.43;5.05;;;;;;;;;;5014223;28;20164;-72
2021/07/28 05:32:21;;;;;;;7.15;5.30;;;;;;;;;;5010467;28;20483;-73
2021/07/28 05:34:46;;;;;;;8.02;4.43;;;;;;;;;;5016233;28;20095;-72
2021/07/28 05:37:14;;;;;;;8.60;5.30;;;;;;;;;;5014645;28;20037;-73
2021/07/28 05:39:39;;;;;;;6.70;5.00;;;;;;;;;;5015681;28;20040;-72
2021/07/28 05:42:05;;;;;;;6.95;4.60;;;;;;;;;;5015786;28;20030;-72
2021/07/28 05:44:32;;;;;;;8.70;5.47;;;;;;;;;;5010469;28;20546;-73
2021/07/28 05:46:57;;;;;;;6.90;4.68;;;;;;;;;;5011709;28;20036;-72
2021/07/28 05:49:22;;;;;;;7.28;4.82;;;;;;;;;;5018130;28;20025;-72
2021/07/28 05:51:50;;;;;;;7.65;5.00;;;;;;;;;;5018415;28;20395;-72
2021/07/28 05:54:16;;;;;;;6.90;4.82;;;;;;;;;;5008444;28;20037;-71
2021/07/28 05:56:41;;;;;;;7.65;5.28;;;;;;;;;;5014396;28;20029;-71
2021/07/28 05:59:06;;;;;;;8.80;5.38;;;;;;;;;;5015419;28;20530;-75
2021/07/28 06:01:32;;;;;;;8.70;5.28;;;;;;;;;;4996303;28;20037;-70
2021/07/28 06:03:57;;;;;;;9.50;6.10;;;;;;;;;;5018526;28;20037;-71
2021/07/28 06:06:26;;;;;;;7.40;4.80;;;;;;;;;;5015537;28;20426;-73
2021/07/28 06:08:51;;;;;;;7.68;5.20;;;;;;;;;;4998894;28;20675;-71
2021/07/28 06:11:16;;;;;;;7.90;5.20;;;;;;;;;;5004369;28;20571;-70
2021/07/28 06:13:42;;;;;;;8.23;5.60;;;;;;;;;;5011694;28;20060;-69
2021/07/28 06:16:07;;;;;;;8.95;5.63;;;;;;;;;;5015527;28;20030;-70
2021/07/28 06:18:33;;;;;;;7.22;5.05;;;;;;;;;;5008026;28;20430;-70
2021/07/28 06:20:59;;;;;;;9.45;6.00;;;;;;;;;;5001224;28;20038;-70
2021/07/28 06:23:24;;;;;;;5.93;4.13;;;;;;;;;;5022172;28;20046;-69
2021/07/28 06:25:50;;;;;;;8.35;5.85;;;;;;;;;;5010476;28;20524;-70
2021/07/28 06:28:15;;;;;;;8.43;5.68;;;;;;;;;;5006563;28;20073;-70
2021/07/28 06:30:40;;;;;;;7.70;5.25;;;;;;;;;;5010318;28;20083;-70
2021/07/28 06:33:08;;;;;;;7.28;4.80;;;;;;;;;;5015768;28;20025;-70
2021/07/28 06:35:33;;;;;;;7.63;5.53;;;;;;;;;;5019693;28;20087;-70
2021/07/28 06:37:59;;;;;;;7.82;5.43;;;;;;;;;;5013779;28;20034;-70
2021/07/28 06:40:24;;;;;;;7.93;5.00;;;;;;;;;;5012540;28;20117;-71
2021/07/28 06:42:49;;;;;;;7.32;5.07;;;;;;;;;;5014141;28;20033;-71
2021/07/28 06:45:15;;;;;;;6.80;4.80;;;;;;;;;;5009007;28;20482;-70
2021/07/28 06:47:40;;;;;;;8.23;4.97;;;;;;;;;;5011633;28;20036;-70
2021/07/28 06:50:06;;;;;;;8.02;4.95;;;;;;;;;;5009338;28;20280;-70
2021/07/28 06:52:31;;;;;;;5.70;3.83;;;;;;;;;;5013570;28;20036;-70
2021/07/28 06:54:56;;;;;;;9.25;4.45;;;;;;;;;;5006922;28;20116;-69
2021/07/28 06:57:22;;;;;;;7.97;4.75;;;;;;;;;;5009380;28;20029;-69
2021/07/28 06:59:47;;;;;;;6.35;4.13;;;;;;;;;;5002626;28;20381;-70
2021/07/28 07:02:12;;;;;;;5.65;3.70;;;;;;;;;;5009209;28;20111;-70
2021/07/28 07:04:38;;;;;;;4.65;3.22;;;;;;;;;;5009402;28;20045;-69
2021/07/28 07:07:03;;;;;;;5.97;4.10;;;;;;;;;;5010136;28;20751;-69
2021/07/28 07:09:29;;;;;;;6.10;3.75;;;;;;;;;;5014441;28;20033;-70
2021/07/28 07:11:54;;;;;;;5.90;4.00;;;;;;;;;;5013825;28;20537;-70
2021/07/28 07:14:21;;;;;;;7.53;4.18;;;;;;;;;;5016486;28;20041;-71
2021/07/28 07:16:47;;;;;;;6.60;4.10;;;;;;;;;;5018843;28;20517;-70
2021/07/28 07:19:12;;;;;;;8.10;4.40;;;;;;;;;;5020171;28;20044;-71
2021/07/28 07:21:37;;;;;;;9.90;4.47;;;;;;;;;;5013551;28;20095;-72
2021/07/28 07:24:03;;;;;;;6.35;4.10;;;;;;;;;;5009629;28;20600;-70
2021/07/28 07:26:28;;;;;;;7.20;4.38;;;;;;;;;;5012244;28;20048;-71
2021/07/28 07:28:53;;;;;;;6.47;4.10;;;;;;;;;;5011286;28;20037;-70
2021/07/28 07:31:19;;;;;;;6.18;3.83;;;;;;;;;;5006590;28;20034;-70
2021/07/28 07:33:44;;;;;;;6.35;4.40;;;;;;;;;;5014813;28;20035;-70
2021/07/28 07:36:11;;;;;;;6.10;4.50;;;;;;;;;;5018656;28;20100;-68
2021/07/28 07:38:36;;;;;;;7.57;4.25;;;;;;;;;;5013447;28;20039;-69
2021/07/28 07:41:02;;;;;;;9.90;4.70;;;;;;;;;;5012555;28;20366;-68
2021/07/28 07:43:28;;;;;;;5.80;3.90;;;;;;;;;;5016193;28;20072;-66
2021/07/28 07:45:55;;;;;;;7.57;4.38;;;;;;;;;;5008828;28;20041;-68
2021/07/28 07:48:20;;;;;;;7.57;4.38;;;;;;;;;;5010602;28;20383;-68
2021/07/28 07:50:46;;;;;;;7.72;4.22;;;;;;;;;;5007845;28;21669;-69
2021/07/28 07:53:12;;;;;;;6.00;4.20;;;;;;;;;;5007245;28;20160;-69
2021/07/28 07:55:40;;;;;;;8.53;4.60;;;;;;;;;;4997934;28;20033;-68
2021/07/28 07:58:05;;;;;;;8.52;4.70;;;;;;;;;;5001770;28;21119;-69
2021/07/28 08:00:31;;;;;;;6.78;4.15;;;;;;;;;;5008535;28;20113;-71
2021/07/28 08:02:56;;;;;;;8.27;4.60;;;;;;;;;;5015367;28;20493;-70
2021/07/28 08:05:21;;;;;;;7.10;4.47;;;;;;;;;;5010710;28;20069;-71
2021/07/28 08:07:47;;;;;;;7.43;4.30;;;;;;;;;;5032995;28;20030;-70
2021/07/28 08:10:14;;;;;;;7.60;4.97;;;;;;;;;;5013662;28;20057;-71
2021/07/28 08:12:40;;;;;;;6.80;4.60;;;;;;;;;;5004459;28;20062;-71
2021/07/28 08:15:05;;;;;;;7.82;4.40;;;;;;;;;;5010767;28;20033;-71
2021/07/28 08:17:31;;;;;;;7.70;5.50;;;;;;;;;;5012434;28;20033;-71
2021/07/28 08:19:56;;;;;;;7.35;4.93;;;;;;;;;;4995902;28;20033;-71
2021/07/28 08:22:22;;;;;;;7.88;5.07;;;;;;;;;;5017064;28;20077;-70
2021/07/28 08:24:47;;;;;;;7.68;5.45;;;;;;;;;;5014206;28;20435;-70
2021/07/28 08:27:15;;;;;;;7.55;5.07;;;;;;;;;;5011955;28;20122;-71
2021/07/28 08:29:40;;;;;;;7.88;5.72;;;;;;;;;;5008160;28;20048;-71
2021/07/28 08:32:06;;;;;;;7.35;4.80;;;;;;;;;;5003449;28;20033;-71
2021/07/28 08:34:31;;;;;;;9.77;5.18;;;;;;;;;;5016910;28;20033;-70
2021/07/28 08:36:56;;;;;;;8.52;5.68;;;;;;;;;;5016421;28;20026;-69
2021/07/28 08:39:22;;;;;;;8.68;5.88;;;;;;;;;;5014176;28;20101;-71
2021/07/28 08:41:48;;;;;;;7.35;4.95;;;;;;;;;;5016321;28;20045;-70
2021/07/28 08:44:17;;;;;;;8.18;5.68;;;;;;;;;;5013012;28;20050;-69
2021/07/28 08:46:43;;;;;;;9.50;5.63;;;;;;;;;;5008126;28;20029;-70
2021/07/28 08:49:14;;;;;;;9.38;5.80;;;;;;;;;;5005693;28;20061;-70
2021/07/28 08:51:43;;;;;;;7.80;4.95;;;;;;;;;;5007924;28;20036;-71
2021/07/28 08:54:09;;;;;;;7.55;5.07;;;;;;;;;;5012389;28;20479;-71
2021/07/28 08:56:38;;;;;;;7.43;5.28;;;;;;;;;;4997707;28;20107;-71
2021/07/28 08:59:06;;;;;;;8.93;4.78;;;;;;;;;;5006487;28;20274;-68
2021/07/28 09:01:31;;;;;;;7.00;4.50;;;;;;;;;;5011408;28;20060;-69
2021/07/28 09:03:56;;;;;;;7.50;4.50;;;;;;;;;;5017113;28;20160;-68
2021/07/28 09:06:28;;;;;;;8.52;4.88;;;;;;;;;;5014988;28;20030;-68
2021/07/28 09:09:01;;;;;;;6.38;4.35;;;;;;;;;;5014006;28;20057;-69
2021/07/28 09:11:28;;;;;;;6.20;4.30;;;;;;;;;;4989653;28;20079;-69
2021/07/28 09:13:56;;;;;;;6.57;4.00;;;;;;;;;;5013832;28;20517;-69
2021/07/28 09:16:21;;;;;;;7.07;4.22;;;;;;;;;;5012716;28;20416;-68
2021/07/28 09:18:48;;;;;;;6.43;4.28;;;;;;;;;;5013440;28;20548;-70
2021/07/28 09:21:20;;;;;;;6.38;3.83;;;;;;;;;;5010332;28;20033;-68
2021/07/28 09:23:50;;;;;;;5.57;3.60;;;;;;;;;;5014254;28;20117;-68
2021/07/28 09:26:39;;;;;;;6.70;3.88;;;;;;;;;;5006476;28;20096;-68
2021/07/28 09:29:06;;;;;;;7.60;4.10;;;;;;;;;;5008114;28;20321;-68
2021/07/28 09:31:37;;;;;;;6.57;3.97;;;;;;;;;;5011927;28;20494;-70
2021/07/28 09:34:26;;;;;;;6.40;4.20;;;;;;;;;;5015008;28;20029;-68
2021/07/28 09:37:10;;;;;;;8.38;3.88;;;;;;;;;;5012848;28;20561;-69
2021/07/28 09:39:36;;;;;;;6.07;4.10;;;;;;;;;;5007270;28;20026;-69
2021/07/28 09:42:07;;;;;;;7.82;4.10;;;;;;;;;;5016956;28;20029;-69
2021/07/28 09:44:34;;;;;;;5.07;3.38;;;;;;;;;;5010497;28;20337;-68
2021/07/28 09:47:02;;;;;;;5.22;3.53;;;;;;;;;;5015656;28;20377;-68
2021/07/28 09:49:30;;;;;;;6.05;3.65;;;;;;;;;;5012424;28;20482;-70
2021/07/28 09:51:55;;;;;;;7.20;3.50;;;;;;;;;;5013642;28;20321;-68
2021/07/28 09:54:25;;;;;;;5.78;3.40;;;;;;;;;;5010159;28;20382;-69
2021/07/28 09:56:52;;;;;;;6.63;3.40;;;;;;;;;;5009031;28;20056;-68
2021/07/28 09:59:22;;;;;;;6.07;3.20;;;;;;;;;;4991642;28;20405;-68
2021/07/28 10:01:47;;;;;;;6.68;3.33;;;;;;;;;;4992055;28;20111;-68
2021/07/28 10:04:13;;;;;;;6.32;3.15;;;;;;;;;;5015591;28;20453;-68
2021/07/28 10:06:40;;;;;;;5.90;3.30;;;;;;;;;;5018062;28;20497;-68
2021/07/28 10:09:07;;;;;;;4.18;2.90;;;;;;;;;;5017265;28;20602;-69
2021/07/28 10:11:32;;;;;;;;;;;;;;;;;;5011563;28;20044;-69
2021/07/28 10:13:58;;;;;;;5.43;3.10;;;;;;;;;;5012644;28;20282;-68
2021/07/28 10:16:25;;;;;;;5.13;3.10;;;;;;;;;;5004812;28;20129;-68
2021/07/28 10:18:55;;;;;;;6.25;3.10;;;;;;;;;;5010511;28;20033;-68
2021/07/28 10:21:20;;;;;;;6.10;3.03;;;;;;;;;;5033760;28;20120;-69
2021/07/28 10:23:47;;;;;;;5.18;3.33;;;;;;;;;;5010035;28;20117;-71
2021/07/28 10:26:15;;;;;;;4.93;3.20;;;;;;;;;;5017574;28;20022;-70
2021/07/28 10:28:46;;;;;;;4.65;2.90;;;;;;;;;;5010848;28;20065;-69
2021/07/28 10:31:15;;;;;;;5.47;3.03;;;;;;;;;;5016143;28;20036;-71
2021/07/28 10:33:47;;;;;;;4.32;2.90;;;;;;;;;;5016293;28;20033;-69
2021/07/28 10:36:15;;;;;;;5.32;3.42;;;;;;;;;;5009828;28;20383;-70
2021/07/28 10:38:56;;;;;;;5.50;3.30;;;;;;;;;;5018639;28;20515;-70
2021/07/28 10:41:37;;;;;;;4.85;2.90;;;;;;;;;;5011438;28;20117;-70
2021/07/28 10:44:06;;;;;;;5.03;3.20;;;;;;;;;;5011106;28;20097;-68
2021/07/28 10:46:51;;;;;;;4.40;2.92;;;;;;;;;;5017266;28;20502;-68
2021/07/28 10:49:42;;;;;;;5.25;3.20;;;;;;;;;;5012746;28;20048;-68
2021/07/28 10:52:30;;;;;;;4.78;3.00;;;;;;;;;;5005938;28;20042;-70
2021/07/28 10:54:58;;;;;;;4.60;2.88;;;;;;;;;;5015223;28;20052;-69
2021/07/28 10:57:33;;;;;;;5.28;3.17;;;;;;;;;;5011982;28;20034;-70
2021/07/28 11:00:03;;;;;;;6.07;3.20;;;;;;;;;;5007872;28;20482;-70
2021/07/28 11:02:47;;;;;;;6.32;3.13;;;;;;;;;;5009498;28;20044;-68
2021/07/28 11:05:19;;;;;;;5.00;2.85;;;;;;;;;;5013519;28;20034;-68
2021/07/28 11:08:07;;;;;;;5.60;3.00;;;;;;;;;;5014209;28;20063;-70
2021/07/28 11:10:33;;;;;;;5.90;3.40;;;;;;;;;;5007002;28;20443;-68
2021/07/28 11:13:03;;;;;;;4.25;2.88;;;;;;;;;;5008319;28;20033;-68
2021/07/28 11:15:28;;;;;;;5.18;3.00;;;;;;;;;;5009110;28;20564;-68
2021/07/28 11:17:56;;;;;;;7.18;3.00;;;;;;;;;;5013759;28;20091;-68
2021/07/28 11:20:30;;;;;;;6.40;3.25;;;;;;;;;;5016171;28;20120;-68
2021/07/28 11:23:18;;;;;;;7.25;3.17;;;;;;;;;;5009794;28;20088;-69
2021/07/28 11:25:43;;;;;;;5.15;3.00;;;;;;;;;;5006179;28;20037;-67
2021/07/28 11:28:09;;;;;;;4.32;2.88;;;;;;;;;;5013058;28;20393;-68
2021/07/28 11:30:37;;;;;;;4.10;2.80;;;;;;;;;;5014579;28;20034;-68
2021/07/28 11:33:12;;;;;;;5.63;2.95;;;;;;;;;;5014335;28;20041;-68
2021/07/28 11:35:43;;;;;;;5.07;3.15;;;;;;;;;;5002478;28;20427;-67
2021/07/28 11:38:13;;;;;;;5.18;3.35;;;;;;;;;;5008834;28;20033;-67
2021/07/28 11:40:46;;;;;;;7.93;3.30;;;;;;;;;;5008350;28;20029;-67
2021/07/28 11:43:26;;;;;;;4.72;3.22;;;;;;;;;;5013862;28;20109;-68
2021/07/28 11:45:54;;;;;;;5.25;3.20;;;;;;;;;;5014611;28;20029;-68
2021/07/28 11:48:33;;;;;;;6.30;3.45;;;;;;;;;;5012733;28;20036;-67
2021/07/28 11:50:59;;;;;;;7.70;3.03;;;;;;;;;;5011284;28;20033;-68
2021/07/28 11:53:27;;;;;;;5.25;2.95;;;;;;;;;;5011228;28;20030;-68
2021/07/28 11:56:05;;;;;;;6.47;3.15;;;;;;;;;;4996219;28;20033;-70
2021/07/28 11:58:30;;;;;;;5.03;3.10;;;;;;;;;;5025866;28;20033;-69
2021/07/28 12:00:56;;;;;;;4.13;2.70;;;;;;;;;;5019660;28;20084;-68
2021/07/28 12:03:25;;;;;;;6.97;3.07;;;;;;;;;;5010952;28;20033;-69
2021/07/28 12:05:58;;;;;;;5.13;3.00;;;;;;;;;;5009394;28;20041;-69
2021/07/28 12:08:30;;;;;;;4.95;3.00;;;;;;;;;;5012488;28;20029;-67
2021/07/28 12:11:21;;;;;;;4.40;2.70;;;;;;;;;;5013411;28;20026;-68
2021/07/28 12:13:48;;;;;;;5.30;3.08;;;;;;;;;;5007169;28;20048;-68
2021/07/28 12:16:13;;;;;;;5.70;3.50;;;;;;;;;;5016567;28;20083;-68
2021/07/28 12:18:45;;;;;;;5.82;3.47;;;;;;;;;;5016379;28;20030;-67
2021/07/28 12:21:13;;;;;;;6.10;3.30;;;;;;;;;;5009058;28;20463;-68
2021/07/28 12:23:52;;;;;;;4.68;3.17;;;;;;;;;;5014768;28;20493;-68
2021/07/28 12:26:37;;;;;;;4.38;2.80;;;;;;;;;;5009613;28;20053;-69
2021/07/28 12:29:02;;;;;;;5.10;2.95;;;;;;;;;;5006329;28;20056;-70
2021/07/28 12:31:28;;;;;;;4.40;2.80;;;;;;;;;;5007339;28;20022;-69
2021/07/28 12:33:54;;;;;;;5.65;3.00;;;;;;;;;;5012823;28;20056;-69
2021/07/28 12:36:27;;;;;;;5.55;2.88;;;;;;;;;;5015291;28;20041;-68
2021/07/28 12:38:52;;;;;;;3.70;2.60;;;;;;;;;;5010910;28;20030;-67
2021/07/28 12:41:18;;;;;;;4.47;2.77;;;;;;;;;;5013265;28;20081;-68
2021/07/28 12:43:43;;;;;;;5.28;2.88;;;;;;;;;;5010837;28;20041;-70
2021/07/28 12:46:09;;;;;;;5.55;2.90;;;;;;;;;;5012621;28;20270;-67
2021/07/28 12:48:35;;;;;;;8.57;3.10;;;;;;;;;;5008918;28;20041;-68
2021/07/28 12:51:02;;;;;;;4.63;2.90;;;;;;;;;;5008940;28;20114;-69
2021/07/28 12:53:28;;;;;;;5.28;2.67;;;;;;;;;;5010451;28;20060;-69
2021/07/28 12:55:53;;;;;;;4.38;2.90;;;;;;;;;;5014153;28;20030;-68
2021/07/28 12:58:19;;;;;;;6.25;2.90;;;;;;;;;;5013430;28;20026;-68
2021/07/28 13:00:44;;;;;;;4.03;2.63;;;;;;;;;;5015584;28;20553;-68
2021/07/28 13:03:20;;;;;;;4.17;2.67;;;;;;;;;;5017222;28;20044;-69
2021/07/28 13:05:48;;;;;;;5.13;3.25;;;;;;;;;;5019380;28;20040;-67
2021/07/28 13:08:14;;;;;;;4.82;2.70;;;;;;;;;;5011377;28;20442;-68
2021/07/28 13:10:44;;;;;;;5.50;3.20;;;;;;;;;;5011459;28;20030;-68
2021/07/28 13:13:12;;;;;;;5.88;3.10;;;;;;;;;;5011749;28;20065;-67
2021/07/28 13:15:41;;;;;;;8.70;3.00;;;;;;;;;;5016302;28;20303;-67
2021/07/28 13:18:07;;;;;;;6.82;3.00;;;;;;;;;;5012445;28;20058;-68
2021/07/28 13:20:32;;;;;;;5.40;3.07;;;;;;;;;;5019795;28;20072;-66
2021/07/28 13:22:58;;;;;;;5.07;2.90;;;;;;;;;;5010954;28;20287;-70
2021/07/28 13:25:23;;;;;;;4.60;2.67;;;;;;;;;;5015837;28;20402;-67
2021/07/28 13:27:51;;;;;;;5.32;3.30;;;;;;;;;;5010838;28;20063;-68
2021/07/28 13:30:17;;;;;;;4.97;3.10;;;;;;;;;;5012855;28;20033;-67
2021/07/28 13:32:42;;;;;;;5.07;2.77;;;;;;;;;;5016633;28;20057;-68
2021/07/28 13:35:09;;;;;;;5.00;2.80;;;;;;;;;;5028402;28;20046;-68
2021/07/28 13:37:36;;;;;;;5.97;2.90;;;;;;;;;;5017185;28;20055;-66
2021/07/28 13:40:03;;;;;;;;;;;;;;;;;;5017957;28;20030;-68
2021/07/28 13:42:28;;;;;;;5.75;3.20;;;;;;;;;;5011051;28;19918;-68
2021/07/28 13:44:57;;;;;;;6.53;3.30;;;;;;;;;;5015524;28;20491;-67
2021/07/28 13:47:22;;;;;;;5.28;3.13;;;;;;;;;;5013260;28;20277;-67
2021/07/28 13:49:47;;;;;;;4.47;2.70;;;;;;;;;;5013140;28;20466;-67
2021/07/28 13:52:13;;;;;;;7.57;3.07;;;;;;;;;;5016117;28;20044;-67
2021/07/28 13:54:40;;;;;;;4.63;2.77;;;;;;;;;;5014215;28;20040;-67
2021/07/28 13:57:15;;;;;;;5.45;2.90;;;;;;;;;;5015066;28;20037;-66
2021/07/28 13:59:45;;;;;;;6.53;3.08;;;;;;;;;;5014410;28;20279;-65
2021/07/28 14:02:12;;;;;;;5.68;3.20;;;;;;;;;;5012259;28;20470;-67
2021/07/28 14:04:37;;;;;;;5.40;3.22;;;;;;;;;;5014775;28;20053;-67
2021/07/28 14:07:03;;;;;;;5.10;2.87;;;;;;;;;;5010565;28;20430;-67
2021/07/28 14:09:28;;;;;;;6.03;3.30;;;;;;;;;;5010597;28;20478;-66
2021/07/28 14:11:54;;;;;;;6.13;3.53;;;;;;;;;;5019567;28;20422;-67
2021/07/28 14:14:19;;;;;;;6.33;3.10;;;;;;;;;;5013703;28;20037;-66
2021/07/28 14:16:47;;;;;;;4.80;3.17;;;;;;;;;;5027978;28;20033;-66
2021/07/28 14:19:17;;;;;;;4.47;2.90;;;;;;;;;;5017110;28;20048;-67
2021/07/28 14:21:42;;;;;;;4.80;3.05;;;;;;;;;;5017585;28;20025;-67
2021/07/28 14:24:10;;;;;;;4.57;2.73;;;;;;;;;;5028768;28;20075;-67
2021/07/28 14:26:38;;;;;;;5.50;3.15;;;;;;;;;;5015712;28;20105;-67
2021/07/28 14:29:03;;;;;;;5.10;3.00;;;;;;;;;;5010309;28;20116;-68
2021/07/28 14:31:29;;;;;;;4.93;2.80;;;;;;;;;;5017171;28;20181;-67
2021/07/28 14:33:54;;;;;;;5.23;2.90;;;;;;;;;;5016043;28;20045;-68
2021/07/28 14:36:19;;;;;;;5.07;2.80;;;;;;;;;;5012444;28;20561;-68
2021/07/28 14:38:47;;;;;;;4.20;2.70;;;;;;;;;;5016086;28;20040;-67
2021/07/28 14:41:12;;;;;;;4.30;2.80;;;;;;;;;;5020120;28;20025;-67
2021/07/28 14:43:38;;;;;;;4.50;2.80;;;;;;;;;;5014287;28;20030;-68
2021/07/28 14:46:05;;;;;;;5.83;3.20;;;;;;;;;;5012295;28;20421;-66